Time;durP1;ratioP1;P1;durP2;ratioP2;P2;SDS_P1;SDS_P2;PMS_P1;PMS_P2;Temp;Humidity;BMP_temperature;BMP_pressure;BME280_temperature;BME280_humidity;BME280_pressure;Samples;Min_cycle;Max_cycle;Signal;HPM_P1;HPM_P2
2021/05/29 03:37:06;;;;;;;14.33;13.33;;;11.40;99.90;;;;;;5929620;23;20416;-68
2021/05/29 03:39:32;;;;;;;14.77;13.97;;;11.40;99.90;;;;;;4945284;29;20492;-67
2021/05/29 03:41:59;;;;;;;14.10;13.47;;;11.40;99.90;;;;;;4935654;29;21033;-67
2021/05/29 03:44:25;;;;;;;14.50;13.60;;;11.40;99.90;;;;;;4935912;29;20871;-67
2021/05/29 03:46:51;;;;;;;13.87;13.13;;;11.50;99.90;;;;;;4935521;28;20972;-67
2021/05/29 03:49:17;;;;;;;14.23;13.43;;;11.50;99.90;;;;;;4955009;29;20507;-67
2021/05/29 03:51:44;;;;;;;13.40;12.67;;;11.50;99.90;;;;;;4954722;29;20499;-68
2021/05/29 03:54:11;;;;;;;14.73;13.93;;;11.50;99.90;;;;;;4954969;29;21171;-66
2021/05/29 03:56:37;;;;;;;14.23;13.23;;;11.60;99.90;;;;;;4954927;29;20798;-67
2021/05/29 03:59:04;;;;;;;13.73;12.93;;;11.70;99.90;;;;;;4955175;29;20458;-68
2021/05/29 04:01:30;;;;;;;14.03;13.33;;;11.70;99.90;;;;;;4954936;29;20874;-67
2021/05/29 04:03:56;;;;;;;13.87;13.20;;;11.80;99.90;;;;;;4954473;29;20448;-67
2021/05/29 04:06:23;;;;;;;15.10;14.20;;;11.80;99.90;;;;;;4954363;29;20950;-67
2021/05/29 04:08:49;;;;;;;15.00;14.10;;;11.90;99.90;;;;;;4954903;29;20460;-67
2021/05/29 04:11:17;;;;;;;14.30;13.60;;;11.90;99.90;;;;;;4954689;29;20456;-67
2021/05/29 04:13:44;;;;;;;13.57;12.83;;;12.00;99.90;;;;;;4954325;29;20488;-67
2021/05/29 04:16:10;;;;;;;14.00;13.17;;;12.00;99.90;;;;;;4953204;28;20455;-67
2021/05/29 04:18:36;;;;;;;13.30;12.50;;;12.00;99.90;;;;;;4954404;29;20457;-67
2021/05/29 04:21:03;;;;;;;14.83;14.03;;;11.90;99.90;;;;;;4954440;29;20453;-67
2021/05/29 04:23:29;;;;;;;14.50;13.70;;;11.90;99.90;;;;;;4954612;29;20453;-67
2021/05/29 04:25:56;;;;;;;14.90;14.10;;;11.80;99.90;;;;;;4954569;29;20966;-68
2021/05/29 04:28:23;;;;;;;14.03;13.10;;;11.90;99.90;;;;;;4954631;29;20456;-68
2021/05/29 04:30:49;;;;;;;14.17;12.90;;;12.50;99.90;;;;;;4954421;29;20456;-68
2021/05/29 04:33:16;;;;;;;13.30;12.50;;;13.20;99.90;;;;;;4954735;29;20457;-68
2021/05/29 04:35:42;;;;;;;12.27;11.67;;;13.90;99.90;;;;;;4954382;29;20460;-68
2021/05/29 04:38:08;;;;;;;13.40;12.80;;;14.70;99.90;;;;;;4953859;29;20485;-68
2021/05/29 04:40:34;;;;;;;13.93;13.13;;;15.30;99.90;;;;;;4954541;29;20457;-69
2021/05/29 04:43:01;;;;;;;13.60;12.90;;;15.80;99.90;;;;;;4953805;28;20473;-69
2021/05/29 04:45:29;;;;;;;15.03;14.30;;;16.20;99.90;;;;;;4954255;29;20560;-69
2021/05/29 04:47:55;;;;;;;14.20;13.30;;;16.20;99.90;;;;;;4954226;29;20852;-69
2021/05/29 04:50:22;;;;;;;14.37;13.57;;;16.20;99.90;;;;;;4954187;28;20469;-68
2021/05/29 04:52:48;;;;;;;13.57;12.87;;;16.10;99.90;;;;;;4954253;29;20460;-68
2021/05/29 04:55:15;;;;;;;14.43;13.83;;;16.00;99.90;;;;;;4953786;29;20488;-68
2021/05/29 04:57:42;;;;;;;14.10;13.40;;;16.40;99.90;;;;;;4953910;29;20464;-69
2021/05/29 05:00:12;;;;;;;14.57;13.97;;;16.80;99.90;;;;;;4953862;28;20460;-69
2021/05/29 05:02:39;;;;;;;14.30;13.30;;;17.10;99.90;;;;;;4953787;28;20463;-69
2021/05/29 05:05:07;;;;;;;13.00;12.40;;;17.20;99.90;;;;;;4953768;29;20455;-69
2021/05/29 05:07:34;;;;;;;13.63;12.93;;;17.20;99.90;;;;;;4953908;29;20463;-68
2021/05/29 05:10:00;;;;;;;14.30;13.50;;;16.90;99.90;;;;;;4953824;28;20452;-69
2021/05/29 05:12:27;;;;;;;13.90;13.10;;;16.80;99.90;;;;;;4953577;29;20456;-68
2021/05/29 05:14:53;;;;;;;15.27;14.43;;;16.70;99.90;;;;;;4953395;29;20847;-68
2021/05/29 05:17:19;;;;;;;13.53;12.93;;;16.80;99.90;;;;;;4953931;28;20456;-68
2021/05/29 05:19:46;;;;;;;13.10;12.60;;;17.20;99.90;;;;;;4953540;28;20510;-68
2021/05/29 05:22:12;;;;;;;15.43;14.60;;;17.80;99.90;;;;;;4953218;28;20449;-68
2021/05/29 05:24:39;;;;;;;14.30;13.60;;;18.30;99.90;;;;;;4953393;28;20464;-68
2021/05/29 05:27:05;;;;;;;13.60;12.73;;;18.50;99.20;;;;;;4952853;28;20460;-68
2021/05/29 05:29:32;;;;;;;14.07;13.17;;;18.80;98.30;;;;;;4952669;29;21014;-68
2021/05/29 05:31:58;;;;;;;14.20;13.50;;;19.00;97.60;;;;;;4953370;29;20452;-68
2021/05/29 05:34:26;;;;;;;13.97;13.23;;;19.50;96.90;;;;;;4953194;29;20488;-69
2021/05/29 05:36:53;;;;;;;14.47;13.67;;;20.10;95.70;;;;;;4952802;29;20480;-67
2021/05/29 05:39:19;;;;;;;15.40;14.60;;;20.40;94.80;;;;;;4953091;28;20484;-67
2021/05/29 05:41:45;;;;;;;14.97;14.27;;;20.20;94.70;;;;;;4953497;29;20571;-69
2021/05/29 05:44:11;;;;;;;13.87;13.23;;;20.20;94.80;;;;;;4953087;28;20459;-68
2021/05/29 05:46:38;;;;;;;13.40;12.90;;;20.10;94.50;;;;;;4952960;28;20449;-68
2021/05/29 05:49:04;;;;;;;13.97;13.37;;;20.00;94.30;;;;;;4953021;29;20464;-67
2021/05/29 05:51:32;;;;;;;13.80;12.70;;;20.10;94.30;;;;;;4952975;28;20472;-67
2021/05/29 05:53:59;;;;;;;14.43;13.73;;;20.40;93.70;;;;;;4952798;28;20495;-67
2021/05/29 05:56:26;;;;;;;13.40;12.80;;;20.50;93.80;;;;;;4952833;29;20453;-67
2021/05/29 05:58:53;;;;;;;12.53;12.03;;;20.60;93.70;;;;;;4952669;29;20954;-68
2021/05/29 06:01:20;;;;;;;13.97;13.27;;;21.00;92.90;;;;;;4952967;28;20452;-69
2021/05/29 06:03:46;;;;;;;13.30;12.70;;;21.00;92.40;;;;;;4952681;29;20495;-68
2021/05/29 06:06:12;;;;;;;13.00;12.20;;;21.30;92.10;;;;;;4952650;28;20460;-69
2021/05/29 06:08:38;;;;;;;13.17;12.47;;;21.40;91.10;;;;;;4952561;29;20970;-68
2021/05/29 06:11:05;;;;;;;12.80;12.30;;;21.80;90.60;;;;;;4952664;29;20460;-69
2021/05/29 06:17:57;;;;;;;13.77;13.17;;;22.40;89.60;;;;;;4952629;29;20453;-70
2021/05/29 06:19:15;;;;;;;12.50;11.93;;;22.60;85.50;;;;;;4952671;29;20512;-69
2021/05/29 06:21:46;;;;;;;13.67;13.07;;;22.50;86.20;;;;;;4952512;29;20495;-69
2021/05/29 06:24:14;;;;;;;12.80;12.20;;;23.00;84.30;;;;;;4952290;28;20503;-70
2021/05/29 06:26:41;;;;;;;13.00;12.47;;;23.50;81.70;;;;;;4952490;29;20621;-70
2021/05/29 06:29:07;;;;;;;12.30;11.77;;;23.90;81.00;;;;;;4952441;29;20921;-69
2021/05/29 06:31:34;;;;;;;13.03;12.40;;;24.00;81.10;;;;;;4952484;29;20448;-68
2021/05/29 06:34:00;;;;;;;12.40;11.90;;;24.40;79.80;;;;;;4952312;29;20480;-69
2021/05/29 06:36:26;;;;;;;12.80;12.27;;;25.00;77.90;;;;;;4951774;29;20650;-69
2021/05/29 06:38:53;;;;;;;13.70;13.10;;;25.40;75.40;;;;;;4951586;28;20495;-69
2021/05/29 06:41:19;;;;;;;13.33;12.83;;;24.80;75.50;;;;;;4952293;29;20858;-69
2021/05/29 06:43:46;;;;;;;13.40;12.80;;;24.90;76.10;;;;;;4951800;28;20449;-69
2021/05/29 06:46:12;;;;;;;13.23;12.67;;;25.30;74.10;;;;;;4952043;28;20449;-69
2021/05/29 06:48:38;;;;;;;13.00;12.50;;;25.00;73.10;;;;;;4952339;29;20464;-68
2021/05/29 06:51:05;;;;;;;12.03;11.57;;;25.10;71.30;;;;;;4952351;29;20572;-69
2021/05/29 06:53:35;;;;;;;11.43;11.00;;;25.30;70.30;;;;;;4952350;29;20548;-69
2021/05/29 06:58:50;;;;;;;12.37;11.67;;;25.20;63.00;;;;;;4952021;29;20475;-69
2021/05/29 07:01:17;;;;;;;11.70;11.30;;;24.80;64.20;;;;;;4952372;29;20821;-71
2021/05/29 07:03:43;;;;;;;11.20;10.80;;;24.10;66.30;;;;;;4951836;29;20456;-69
2021/05/29 07:06:10;;;;;;;11.87;11.43;;;23.70;66.30;;;;;;4951815;29;20448;-70
2021/05/29 07:08:36;;;;;;;11.80;11.20;;;23.50;66.60;;;;;;4951800;29;20508;-68
2021/05/29 07:11:03;;;;;;;11.70;11.30;;;23.60;67.80;;;;;;4956094;29;20464;-70
2021/05/29 07:13:29;;;;;;;11.67;11.17;;;23.60;67.00;;;;;;4955948;28;20456;-69
2021/05/29 07:15:56;;;;;;;12.77;12.17;;;23.90;67.10;;;;;;4952181;29;20975;-69
2021/05/29 07:18:25;;;;;;;13.10;12.43;;;23.70;66.50;;;;;;4951965;29;20452;-71
2021/05/29 07:20:51;;;;;;;11.20;10.80;;;23.60;66.80;;;;;;4952047;29;20511;-72
2021/05/29 07:23:17;;;;;;;12.27;11.77;;;23.60;65.80;;;;;;4952700;28;20456;-74
2021/05/29 07:25:43;;;;;;;12.10;11.60;;;23.70;66.00;;;;;;4952598;28;20491;-75
2021/05/29 07:28:10;;;;;;;11.97;11.47;;;23.80;65.50;;;;;;4951688;28;20453;-74
2021/05/29 07:30:36;;;;;;;11.60;11.20;;;23.80;65.90;;;;;;4951250;28;20449;-73
2021/05/29 07:33:04;;;;;;;12.63;12.03;;;24.00;64.20;;;;;;4950352;28;20457;-74
2021/05/29 07:35:30;;;;;;;13.13;12.63;;;24.80;62.70;;;;;;4951436;29;20516;-74
2021/05/29 07:37:56;;;;;;;13.10;12.60;;;25.40;60.30;;;;;;4951417;28;20487;-74
2021/05/29 07:40:23;;;;;;;13.37;12.50;;;24.80;60.10;;;;;;4951661;28;20972;-74
2021/05/29 07:42:50;;;;;;;12.40;11.90;;;25.30;60.00;;;;;;4951762;29;20499;-74
2021/05/29 07:45:16;;;;;;;12.43;12.03;;;25.60;59.60;;;;;;4951612;29;20461;-74
2021/05/29 07:47:43;;;;;;;12.30;11.90;;;25.50;59.50;;;;;;4951595;28;20825;-74
2021/05/29 07:50:12;;;;;;;12.40;12.00;;;25.70;60.80;;;;;;4951528;28;21048;-74
2021/05/29 07:52:38;;;;;;;12.90;12.50;;;26.30;58.50;;;;;;4954110;29;20455;-74
2021/05/29 07:55:06;;;;;;;12.40;12.00;;;26.50;58.30;;;;;;4954914;28;20503;-74
2021/05/29 07:57:32;;;;;;;12.33;11.93;;;26.20;56.90;;;;;;4954858;28;20957;-75
2021/05/29 07:59:59;;;;;;;13.87;13.37;;;26.20;56.50;;;;;;4952987;28;20457;-74
2021/05/29 08:02:25;;;;;;;13.07;12.40;;;26.60;55.60;;;;;;4954870;29;20491;-74
2021/05/29 08:04:52;;;;;;;12.70;12.23;;;27.30;54.60;;;;;;4955048;28;20449;-73
2021/05/29 08:07:19;;;;;;;12.80;12.40;;;27.60;53.20;;;;;;4955026;29;20456;-73
2021/05/29 08:09:45;;;;;;;12.20;11.80;;;27.00;53.60;;;;;;4954632;29;20507;-74
2021/05/29 08:12:12;;;;;;;13.30;12.80;;;26.70;54.70;;;;;;4954690;29;20553;-73
2021/05/29 08:14:38;;;;;;;12.73;12.20;;;26.10;53.90;;;;;;4954622;29;20488;-73
2021/05/29 08:17:05;;;;;;;12.13;11.73;;;26.10;54.40;;;;;;4954757;28;20452;-73
2021/05/29 08:19:32;;;;;;;12.40;12.00;;;25.80;52.50;;;;;;4954730;29;20459;-73
2021/05/29 08:21:59;;;;;;;12.00;11.30;;;25.00;54.20;;;;;;4954315;28;20453;-73
2021/05/29 08:24:26;;;;;;;12.60;12.20;;;25.20;55.80;;;;;;4954428;28;20504;-73
2021/05/29 08:26:53;;;;;;;12.40;11.90;;;25.70;55.70;;;;;;4954442;29;20527;-72
2021/05/29 08:29:19;;;;;;;12.10;11.60;;;26.10;54.50;;;;;;4954594;28;20457;-73
2021/05/29 08:31:46;;;;;;;12.40;11.90;;;26.20;54.60;;;;;;4954331;29;20457;-73
2021/05/29 08:34:13;;;;;;;12.77;12.10;;;25.40;54.70;;;;;;4954202;28;20588;-73
2021/05/29 08:36:40;;;;;;;11.90;11.50;;;26.10;54.20;;;;;;4954075;29;20473;-74
2021/05/29 08:39:07;;;;;;;10.63;10.23;;;26.90;52.90;;;;;;4953852;29;20504;-73
2021/05/29 08:41:35;;;;;;;11.80;11.40;;;27.30;52.50;;;;;;4954255;29;20460;-73
2021/05/29 08:44:02;;;;;;;12.23;11.83;;;27.10;51.60;;;;;;4954025;28;20531;-74
2021/05/29 08:46:28;;;;;;;12.00;11.60;;;26.80;51.90;;;;;;4954339;29;20504;-74
2021/05/29 08:48:54;;;;;;;13.40;12.80;;;27.00;51.90;;;;;;4954047;29;20460;-74
2021/05/29 08:51:21;;;;;;;12.73;12.33;;;26.50;52.50;;;;;;4954135;29;20959;-73
2021/05/29 08:53:50;;;;;;;13.67;13.07;;;27.30;52.30;;;;;;4953958;29;20453;-74
2021/05/29 08:56:18;;;;;;;12.70;12.30;;;27.90;51.10;;;;;;4953914;28;20448;-73
2021/05/29 08:58:45;;;;;;;12.37;11.87;;;28.20;50.30;;;;;;4953843;28;20507;-74
2021/05/29 09:01:12;;;;;;;12.10;11.50;;;28.50;49.30;;;;;;4953653;29;20453;-74
2021/05/29 09:03:45;;;;;;;11.50;11.10;;;28.10;48.20;;;;;;4953279;28;20512;-75
2021/05/29 09:06:13;;;;;;;12.20;11.70;;;27.90;48.00;;;;;;4953361;29;20943;-74
2021/05/29 09:08:51;;;;;;;11.53;11.00;;;28.40;48.20;;;;;;4953429;29;21018;-74
2021/05/29 09:11:37;;;;;;;10.90;10.50;;;26.50;49.40;;;;;;4953706;28;21040;-74
2021/05/29 09:14:28;;;;;;;11.37;10.87;;;23.90;52.00;;;;;;4953877;29;20488;-74
2021/05/29 09:17:03;;;;;;;11.10;10.60;;;23.40;55.10;;;;;;4953538;29;20460;-75
2021/05/29 09:19:49;;;;;;;11.40;11.00;;;23.70;54.30;;;;;;4953729;29;20448;-75
2021/05/29 09:22:16;;;;;;;11.40;10.90;;;23.70;53.30;;;;;;4953562;29;20452;-74
2021/05/29 09:24:54;;;;;;;11.20;10.70;;;24.10;53.40;;;;;;4953520;28;20445;-74
2021/05/29 09:27:21;;;;;;;12.20;11.60;;;24.80;50.80;;;;;;4953426;29;20456;-74
2021/05/29 09:29:48;;;;;;;11.77;11.37;;;25.20;49.50;;;;;;4953444;29;20457;-74
2021/05/29 09:32:14;;;;;;;11.40;11.00;;;25.60;49.70;;;;;;4953271;29;20861;-75
2021/05/29 09:34:43;;;;;;;13.17;12.30;;;25.60;48.80;;;;;;4947604;29;20496;-75
2021/05/29 09:37:11;;;;;;;12.20;11.70;;;25.90;48.60;;;;;;4935518;29;20564;-75
2021/05/29 09:39:39;;;;;;;12.30;11.60;;;26.90;48.30;;;;;;4952064;29;20480;-75
2021/05/29 09:42:06;;;;;;;12.37;11.57;;;26.80;47.10;;;;;;4949530;28;20450;-75
2021/05/29 09:44:32;;;;;;;11.20;10.80;;;26.50;46.40;;;;;;4934254;29;20459;-73
2021/05/29 09:47:01;;;;;;;11.80;11.40;;;25.80;48.20;;;;;;4932141;29;20819;-72
2021/05/29 09:49:48;;;;;;;12.23;11.63;;;25.40;48.70;;;;;;4933697;29;20500;-72
2021/05/29 09:52:30;;;;;;;12.20;11.60;;;25.70;50.20;;;;;;4950367;29;20464;-72
2021/05/29 09:54:58;;;;;;;12.33;11.80;;;26.30;50.70;;;;;;4950766;29;20855;-71
2021/05/29 09:57:24;;;;;;;12.23;11.83;;;27.30;49.10;;;;;;4953073;29;20836;-71
2021/05/29 09:59:59;;;;;;;12.13;11.73;;;27.80;49.00;;;;;;4953021;29;20483;-72
2021/05/29 10:02:26;;;;;;;12.10;11.70;;;27.80;49.60;;;;;;4952741;29;20456;-72
2021/05/29 10:04:55;;;;;;;11.87;11.37;;;27.90;48.50;;;;;;4952658;29;20449;-72
2021/05/29 10:07:22;;;;;;;12.40;11.90;;;26.90;50.50;;;;;;4951457;29;20468;-72
2021/05/29 10:09:49;;;;;;;12.40;11.80;;;25.60;52.00;;;;;;4933623;29;20819;-72
2021/05/29 10:12:15;;;;;;;12.00;11.50;;;23.80;54.10;;;;;;4933384;29;20453;-72
2021/05/29 10:14:42;;;;;;;11.27;10.87;;;22.80;56.00;;;;;;4932639;29;20497;-72
2021/05/29 10:17:10;;;;;;;11.77;11.27;;;22.30;57.90;;;;;;4933399;29;20454;-71
2021/05/29 10:19:39;;;;;;;12.47;11.97;;;23.20;57.00;;;;;;4933502;29;20457;-71
2021/05/29 10:22:08;;;;;;;11.30;10.90;;;25.10;54.20;;;;;;4933558;29;20548;-70
2021/05/29 10:24:35;;;;;;;11.83;11.33;;;26.80;51.90;;;;;;4933555;29;20450;-72
2021/05/29 10:27:06;;;;;;;12.00;11.60;;;28.30;48.40;;;;;;4933457;29;20967;-72
2021/05/29 10:29:33;;;;;;;12.20;11.70;;;28.20;48.90;;;;;;4933805;29;20780;-71
2021/05/29 10:32:11;;;;;;;11.50;11.10;;;26.50;49.80;;;;;;4933359;29;20492;-72
2021/05/29 10:34:58;;;;;;;10.60;10.20;;;25.50;52.10;;;;;;4933044;29;20497;-72
2021/05/29 10:37:30;;;;;;;10.80;10.50;;;24.40;52.30;;;;;;4932418;29;20539;-71
2021/05/29 10:40:17;;;;;;;11.20;10.70;;;23.10;53.20;;;;;;4932700;29;20803;-71
2021/05/29 10:42:44;;;;;;;11.07;10.60;;;22.60;54.80;;;;;;4944127;29;20786;-71
2021/05/29 10:45:18;;;;;;;11.33;10.83;;;23.60;54.10;;;;;;4952239;29;20516;-70
2021/05/29 10:48:02;;;;;;;11.37;10.97;;;24.80;52.50;;;;;;4952189;29;21037;-71
2021/05/29 10:51:04;;;;;;;12.23;11.73;;;26.20;50.10;;;;;;4952182;29;20884;-71
2021/05/29 10:53:44;;;;;;;11.20;10.87;;;27.10;49.10;;;;;;4952186;29;20982;-71
2021/05/29 10:56:31;;;;;;;11.40;10.90;;;27.80;47.00;;;;;;4952182;29;20495;-71
2021/05/29 10:58:59;;;;;;;11.40;11.00;;;27.10;47.20;;;;;;4952117;29;20461;-71
2021/05/29 11:02:01;;;;;;;11.57;11.07;;;26.60;48.10;;;;;;4952372;29;20464;-71
2021/05/29 11:04:28;;;;;;;11.00;10.50;;;25.30;49.70;;;;;;4952179;29;20444;-71
2021/05/29 11:06:57;;;;;;;11.10;10.70;;;23.70;51.70;;;;;;4951877;29;20463;-71
2021/05/29 11:09:45;;;;;;;11.97;11.57;;;23.50;52.70;;;;;;4951930;28;20499;-71
2021/05/29 11:12:12;;;;;;;11.10;10.70;;;24.50;51.20;;;;;;4951948;28;20457;-70
2021/05/29 11:14:51;;;;;;;11.53;10.90;;;25.70;49.60;;;;;;4951924;28;20492;-71
2021/05/29 11:17:19;;;;;;;11.00;10.53;;;27.00;47.50;;;;;;4952077;29;20456;-71
2021/05/29 11:20:10;;;;;;;12.90;12.40;;;27.60;45.60;;;;;;4952017;29;20788;-70
2021/05/29 11:22:42;;;;;;;11.67;11.27;;;27.80;45.30;;;;;;4951958;29;20989;-71
2021/05/29 11:25:09;;;;;;;11.77;11.10;;;27.90;45.00;;;;;;4952232;28;20444;-71
2021/05/29 11:27:39;;;;;;;11.40;11.00;;;26.40;46.60;;;;;;4955992;29;20448;-70
2021/05/29 11:30:09;;;;;;;11.00;10.50;;;24.10;48.00;;;;;;4955778;29;20448;-71
2021/05/29 11:32:45;;;;;;;10.77;10.47;;;23.20;51.50;;;;;;4955817;29;20547;-70
2021/05/29 11:35:20;;;;;;;10.23;9.93;;;23.40;50.60;;;;;;4955315;29;20503;-70
2021/05/29 11:38:01;;;;;;;11.40;10.70;;;25.00;49.20;;;;;;4955424;29;20993;-70
2021/05/29 11:40:50;;;;;;;11.07;10.73;;;25.90;46.30;;;;;;4955544;29;20558;-69
2021/05/29 11:43:19;;;;;;;11.07;10.70;;;25.20;46.80;;;;;;4939884;29;20589;-68
2021/05/29 11:45:46;;;;;;;10.07;9.77;;;25.00;47.90;;;;;;4936174;29;20847;-68
2021/05/29 11:48:15;;;;;;;11.50;11.10;;;25.80;46.30;;;;;;4936353;29;20461;-68
2021/05/29 11:50:41;;;;;;;10.30;10.00;;;26.30;45.50;;;;;;4936053;29;20480;-68
2021/05/29 11:53:09;;;;;;;11.40;11.00;;;27.10;44.70;;;;;;4936049;29;20991;-68
2021/05/29 11:55:53;;;;;;;11.87;11.47;;;27.30;44.60;;;;;;4936316;29;20873;-68
2021/05/29 11:58:19;;;;;;;11.80;11.40;;;25.70;45.50;;;;;;4936248;29;20452;-68
2021/05/29 12:00:59;;;;;;;11.70;11.30;;;24.00;49.20;;;;;;4936009;29;20454;-68
2021/05/29 12:03:45;;;;;;;11.17;10.80;;;23.10;50.00;;;;;;4936202;29;20970;-67
2021/05/29 12:06:12;;;;;;;10.83;10.43;;;23.60;48.20;;;;;;4936023;29;20445;-68
2021/05/29 12:08:55;;;;;;;10.23;9.93;;;24.40;45.90;;;;;;4935861;29;20450;-68
2021/05/29 12:11:23;;;;;;;11.80;11.33;;;24.80;44.70;;;;;;4935986;29;20457;-68
2021/05/29 12:14:01;;;;;;;11.90;11.23;;;25.30;44.70;;;;;;4935972;29;20456;-69
2021/05/29 12:16:29;;;;;;;11.20;10.80;;;25.70;45.30;;;;;;4935520;29;20445;-69
2021/05/29 12:18:57;;;;;;;11.70;11.30;;;26.00;45.20;;;;;;4935429;29;20470;-68
2021/05/29 12:21:23;;;;;;;11.63;11.30;;;26.20;44.20;;;;;;4935554;29;20445;-68
2021/05/29 12:24:02;;;;;;;11.50;11.10;;;26.60;42.60;;;;;;4935705;29;20462;-68
2021/05/29 12:26:28;;;;;;;11.77;11.40;;;26.70;41.90;;;;;;4935372;29;20457;-69
2021/05/29 12:28:54;;;;;;;10.90;10.60;;;27.10;42.80;;;;;;4935386;29;20456;-68
2021/05/29 12:31:22;;;;;;;11.73;11.33;;;27.30;43.80;;;;;;4935324;29;20942;-68
2021/05/29 12:34:01;;;;;;;11.43;11.07;;;27.30;44.50;;;;;;4935393;29;20465;-68
2021/05/29 12:36:28;;;;;;;12.00;11.60;;;27.80;44.90;;;;;;4934994;29;20461;-68
2021/05/29 12:38:55;;;;;;;11.30;10.90;;;28.30;41.60;;;;;;4934900;29;20572;-68
2021/05/29 12:41:24;;;;;;;11.07;10.67;;;28.30;40.60;;;;;;4935510;29;20445;-69
2021/05/29 12:44:02;;;;;;;12.23;11.83;;;27.10;41.00;;;;;;4954267;29;20459;-68
2021/05/29 12:46:28;;;;;;;11.60;11.20;;;25.30;44.30;;;;;;4954228;29;20973;-68
2021/05/29 12:49:08;;;;;;;11.93;11.43;;;25.40;45.30;;;;;;4954098;29;20454;-68
2021/05/29 12:51:43;;;;;;;12.17;11.70;;;25.90;46.00;;;;;;4954144;29;20818;-68
2021/05/29 12:54:10;;;;;;;11.30;10.90;;;26.50;44.00;;;;;;4954076;28;20452;-68
2021/05/29 12:56:36;;;;;;;10.67;10.33;;;26.30;42.00;;;;;;4954241;29;20452;-68
2021/05/29 12:59:04;;;;;;;11.90;11.50;;;26.50;43.80;;;;;;4954162;29;20943;-68
2021/05/29 13:01:46;;;;;;;11.80;11.30;;;27.00;43.30;;;;;;4954162;29;20453;-68
2021/05/29 13:07:26;;;;;;;10.90;10.60;;;26.50;42.20;;;;;;4953915;29;20488;-68
2021/05/29 13:10:00;;;;;;;11.20;10.80;;;27.00;41.40;;;;;;4953729;29;20491;-69
2021/05/29 13:12:26;;;;;;;10.87;10.47;;;27.50;40.30;;;;;;4953667;29;21100;-68
2021/05/29 13:14:53;;;;;;;11.40;11.10;;;28.10;40.40;;;;;;4953453;29;20547;-68
2021/05/29 13:17:26;;;;;;;11.77;11.43;;;27.90;40.00;;;;;;4954023;29;20819;-68
2021/05/29 13:19:55;;;;;;;11.33;11.00;;;27.40;40.90;;;;;;4953889;29;20456;-68
2021/05/29 13:22:24;;;;;;;11.00;10.70;;;25.80;41.10;;;;;;4953506;29;20939;-72
2021/05/29 13:24:56;;;;;;;11.40;10.90;;;24.60;44.50;;;;;;4953611;29;20826;-71
2021/05/29 13:27:42;;;;;;;11.27;10.87;;;24.00;44.10;;;;;;4953689;29;20965;-69
2021/05/29 13:30:16;;;;;;;11.00;10.60;;;24.10;44.50;;;;;;4953546;29;20516;-68
2021/05/29 13:32:42;;;;;;;11.33;11.03;;;25.50;43.60;;;;;;4953522;29;20453;-68
2021/05/29 13:35:09;;;;;;;10.97;10.67;;;25.90;43.40;;;;;;4953311;29;20504;-68
2021/05/29 13:37:37;;;;;;;11.70;11.30;;;25.80;44.50;;;;;;4953133;28;20488;-68
2021/05/29 13:40:05;;;;;;;11.20;10.90;;;26.40;43.70;;;;;;4953495;29;20456;-69
2021/05/29 13:42:31;;;;;;;11.50;11.10;;;26.40;42.50;;;;;;4943795;28;20456;-68
2021/05/29 13:44:57;;;;;;;11.47;10.97;;;25.80;43.30;;;;;;4934184;29;20461;-68
2021/05/29 13:47:24;;;;;;;10.87;10.57;;;25.00;43.20;;;;;;4933908;29;20940;-68
2021/05/29 13:49:50;;;;;;;11.13;10.73;;;24.70;44.10;;;;;;4933062;29;20454;-68
2021/05/29 13:52:16;;;;;;;11.17;10.77;;;24.20;43.70;;;;;;4933867;29;20457;-69
2021/05/29 13:54:43;;;;;;;10.93;10.63;;;24.00;43.90;;;;;;4933983;29;20489;-68
2021/05/29 13:57:09;;;;;;;10.20;9.90;;;23.70;43.70;;;;;;4933789;29;20454;-68
2021/05/29 13:59:37;;;;;;;11.07;10.77;;;24.10;43.20;;;;;;4933849;29;20517;-68
2021/05/29 14:02:04;;;;;;;11.53;11.13;;;24.40;43.30;;;;;;4934014;29;20544;-68
2021/05/29 14:04:30;;;;;;;10.30;9.90;;;24.50;42.30;;;;;;4933773;29;20458;-68
2021/05/29 14:06:57;;;;;;;11.37;10.97;;;24.60;42.80;;;;;;4933712;29;20642;-68
2021/05/29 14:09:24;;;;;;;10.87;10.50;;;24.50;42.00;;;;;;4933545;29;20461;-71
2021/05/29 14:11:51;;;;;;;10.70;10.40;;;24.40;42.80;;;;;;4931751;29;20460;-70
2021/05/29 14:14:19;;;;;;;11.30;10.93;;;24.50;43.70;;;;;;4932816;29;20461;-72
2021/05/29 14:16:45;;;;;;;12.17;11.77;;;25.60;43.60;;;;;;4933341;29;20466;-70
2021/05/29 14:19:12;;;;;;;11.70;11.20;;;26.90;42.30;;;;;;4933499;29;20461;-70
2021/05/29 14:21:38;;;;;;;10.97;10.57;;;27.10;41.00;;;;;;4933458;29;20936;-70
2021/05/29 14:24:06;;;;;;;11.13;10.83;;;25.10;42.80;;;;;;4933538;29;20457;-70
2021/05/29 14:26:33;;;;;;;12.13;11.37;;;24.00;44.70;;;;;;4933543;29;20512;-70
2021/05/29 14:29:01;;;;;;;10.30;9.90;;;23.40;46.70;;;;;;4933194;29;20463;-70
2021/05/29 14:31:28;;;;;;;11.47;10.97;;;24.00;45.20;;;;;;4933156;29;20458;-74
2021/05/29 14:33:55;;;;;;;11.50;11.20;;;24.20;44.90;;;;;;4933161;29;20449;-70
2021/05/29 14:36:22;;;;;;;10.97;10.40;;;24.70;43.60;;;;;;4933064;29;20533;-70
2021/05/29 14:38:49;;;;;;;10.67;10.20;;;24.70;43.10;;;;;;4933118;29;20485;-71
2021/05/29 14:41:16;;;;;;;10.73;10.43;;;25.00;42.00;;;;;;4933243;29;20454;-69
2021/05/29 14:43:42;;;;;;;10.80;10.50;;;24.40;41.60;;;;;;4952033;29;20675;-71
2021/05/29 14:46:10;;;;;;;10.43;10.13;;;23.90;41.90;;;;;;4952350;29;20994;-71
2021/05/29 14:48:38;;;;;;;11.00;10.60;;;23.60;41.40;;;;;;4952439;29;20874;-71
2021/05/29 14:51:17;;;;;;;10.33;10.03;;;23.70;42.40;;;;;;4952401;28;20456;-72
2021/05/29 14:53:45;;;;;;;12.27;11.77;;;23.90;41.20;;;;;;4952426;29;20448;-71
2021/05/29 14:56:12;;;;;;;10.60;10.30;;;23.20;41.50;;;;;;4952225;29;21030;-71
2021/05/29 14:58:38;;;;;;;10.80;10.40;;;22.70;42.10;;;;;;4952309;29;20468;-71
2021/05/29 15:01:04;;;;;;;10.87;10.47;;;22.20;43.10;;;;;;4954518;28;20459;-71
2021/05/29 15:03:33;;;;;;;10.80;10.50;;;22.00;44.30;;;;;;4956202;29;20437;-71
2021/05/29 15:06:00;;;;;;;12.03;11.53;;;22.00;45.80;;;;;;4956306;29;20531;-71
2021/05/29 15:08:27;;;;;;;10.60;10.10;;;22.20;46.40;;;;;;4955919;29;21039;-72
2021/05/29 15:10:53;;;;;;;11.17;10.87;;;22.40;45.60;;;;;;4956088;28;20459;-71
2021/05/29 15:13:20;;;;;;;10.93;10.63;;;22.50;45.60;;;;;;4956158;29;20533;-72
2021/05/29 15:15:46;;;;;;;10.73;10.43;;;22.30;44.50;;;;;;4956003;29;20547;-71
2021/05/29 15:18:12;;;;;;;9.73;9.40;;;22.40;45.40;;;;;;4955922;28;20491;-71
2021/05/29 15:20:56;;;;;;;11.47;11.07;;;22.40;45.50;;;;;;4955822;29;20449;-71
2021/05/29 15:23:23;;;;;;;11.33;10.93;;;22.30;46.80;;;;;;4955951;29;20494;-71
2021/05/29 15:25:53;;;;;;;11.33;11.03;;;22.20;47.30;;;;;;4954277;28;20452;-71
2021/05/29 15:28:19;;;;;;;10.90;10.57;;;22.00;48.00;;;;;;4954005;28;20464;-71
2021/05/29 15:30:45;;;;;;;11.57;10.97;;;22.20;48.20;;;;;;4955594;29;20464;-71
2021/05/29 15:33:11;;;;;;;11.30;10.90;;;22.30;47.90;;;;;;4955470;28;20460;-71
2021/05/29 15:35:39;;;;;;;12.27;11.47;;;22.70;47.70;;;;;;4955314;28;20495;-71
2021/05/29 15:38:05;;;;;;;11.20;10.80;;;22.70;48.00;;;;;;4955429;28;20496;-71
2021/05/29 15:40:31;;;;;;;11.53;11.13;;;22.40;47.80;;;;;;4955659;29;20966;-71
2021/05/29 15:42:58;;;;;;;11.23;10.70;;;22.50;48.50;;;;;;4942355;29;20453;-71
2021/05/29 15:45:25;;;;;;;10.70;10.40;;;22.80;47.80;;;;;;4936170;29;20779;-71
2021/05/29 15:47:53;;;;;;;11.80;11.30;;;22.70;48.20;;;;;;4936072;29;20464;-71
2021/05/29 15:50:20;;;;;;;10.90;10.60;;;22.80;47.60;;;;;;4936194;29;20948;-71
2021/05/29 15:52:47;;;;;;;10.50;10.20;;;22.60;47.70;;;;;;4936224;29;20512;-71
2021/05/29 15:55:14;;;;;;;10.97;10.57;;;22.50;48.20;;;;;;4936048;29;20493;-71
2021/05/29 15:57:41;;;;;;;10.90;10.50;;;22.20;48.70;;;;;;4935855;29;20457;-71
2021/05/29 16:00:09;;;;;;;10.70;10.30;;;21.60;50.20;;;;;;4936042;29;21024;-71
2021/05/29 16:02:36;;;;;;;10.70;10.30;;;21.20;51.20;;;;;;4936079;29;20465;-71
2021/05/29 16:05:03;;;;;;;11.53;11.13;;;21.00;51.90;;;;;;4936008;29;20452;-71
2021/05/29 16:07:29;;;;;;;11.07;10.77;;;20.80;52.30;;;;;;4936115;29;20473;-71
2021/05/29 16:09:57;;;;;;;10.50;10.10;;;20.90;52.20;;;;;;4935508;29;20461;-71
2021/05/29 16:12:23;;;;;;;10.80;10.50;;;20.90;52.00;;;;;;4934604;29;20497;-70
2021/05/29 16:14:49;;;;;;;10.93;10.53;;;20.90;52.50;;;;;;4935714;29;20489;-70
2021/05/29 16:17:17;;;;;;;11.20;10.73;;;20.90;52.60;;;;;;4933689;29;20489;-70
2021/05/29 16:19:44;;;;;;;11.53;11.13;;;20.70;52.30;;;;;;4935312;29;20468;-70
2021/05/29 16:22:10;;;;;;;11.60;11.20;;;20.80;52.80;;;;;;4935392;29;20952;-70